createdAt,value
2023-01-29T00:01:52.204Z,103038.03
2023-01-29T00:04:19.311Z,103027.53
2023-01-29T00:06:48.116Z,103026.66
2023-01-29T00:09:16.344Z,103022.28
2023-01-29T00:11:43.478Z,103018.75
2023-01-29T00:14:14.671Z,103018.69
2023-01-29T00:16:41.651Z,103016.97
2023-01-29T00:19:08.501Z,103015.22
2023-01-29T00:21:35.755Z,103022.22
2023-01-29T00:24:05.706Z,103009.94
2023-01-29T00:26:32.836Z,103013.47
2023-01-29T00:28:59.951Z,103005.59
2023-01-29T00:31:31.197Z,103007.34
2023-01-29T00:33:59.545Z,103005.59
2023-01-29T00:36:27.347Z,103009.09
2023-01-29T00:38:58.942Z,103013.50
2023-01-29T00:41:28.902Z,103004.75
2023-01-29T00:43:55.910Z,103009.09
2023-01-29T00:46:22.713Z,103015.25
2023-01-29T00:48:51.244Z,103011.78
2023-01-29T00:53:59.320Z,103004.72
2023-01-29T00:59:42.697Z,103010.88
2023-01-29T01:02:11.931Z,103010.91
2023-01-29T01:04:38.701Z,103001.25
2023-01-29T01:07:05.992Z,103010.03
2023-01-29T01:09:35.188Z,103012.63
2023-01-29T01:12:01.883Z,103009.09
2023-01-29T01:14:28.698Z,103008.22
2023-01-29T01:16:56.761Z,103002.97
2023-01-29T01:19:23.634Z,102997.66
2023-01-29T01:21:50.361Z,102999.41
2023-01-29T01:24:17.079Z,102997.66
2023-01-29T01:26:43.798Z,103006.31
2023-01-29T01:29:10.598Z,102998.41
2023-01-29T01:31:37.312Z,102997.59
2023-01-29T01:34:05.742Z,102994.06
2023-01-29T01:36:32.872Z,102995.81
2023-01-29T01:39:00.028Z,102994.94
2023-01-29T01:41:26.888Z,103000.97
2023-01-29T01:43:55.624Z,102998.34
2023-01-29T01:46:24.116Z,102982.53
2023-01-29T01:48:56.587Z,102965.16
2023-01-29T01:51:27.704Z,102984.31
2023-01-29T01:54:00.780Z,102985.16
2023-01-29T01:56:33.329Z,102991.38
2023-01-29T01:59:00.336Z,102978.19
2023-01-29T02:01:28.489Z,102981.66
2023-01-29T02:04:00.756Z,102986.00
2023-01-29T02:06:30.259Z,102989.47
2023-01-29T02:09:02.242Z,102993.88
2023-01-29T02:11:29.135Z,102986.97
2023-01-29T02:13:56.876Z,102988.69
2023-01-29T02:16:25.910Z,102993.91
2023-01-29T02:18:53.198Z,102993.06
2023-01-29T02:21:46.445Z,102997.38
2023-01-29T02:24:50.180Z,102996.47
2023-01-29T02:27:21.980Z,102981.56
2023-01-29T02:30:01.864Z,102987.75
2023-01-29T02:32:35.874Z,102990.34
2023-01-29T02:35:16.813Z,102984.25
2023-01-29T02:37:50.611Z,102973.66
2023-01-29T02:40:29.113Z,102972.81
2023-01-29T02:43:04.278Z,102971.16
2023-01-29T02:45:40.882Z,102975.50
2023-01-29T02:48:14.783Z,102966.72
2023-01-29T02:50:44.431Z,102961.41
2023-01-29T02:53:14.896Z,102956.13
2023-01-29T02:55:47.130Z,102966.69
2023-01-29T02:58:21.747Z,102967.56
2023-01-29T03:00:54.199Z,102954.38
2023-01-29T03:03:26.421Z,102961.44
2023-01-29T03:06:01.646Z,102946.47
2023-01-29T03:08:32.379Z,102944.69
2023-01-29T03:11:04.343Z,102938.44
2023-01-29T03:13:37.003Z,102938.38
2023-01-29T03:16:12.446Z,102926.91
2023-01-29T03:18:46.011Z,102936.59
2023-01-29T03:21:18.455Z,102926.16
2023-01-29T03:23:45.448Z,102926.25
2023-01-29T03:26:14.982Z,102935.13
2023-01-29T03:28:44.276Z,102924.69
2023-01-29T03:31:14.355Z,102921.19
2023-01-29T03:33:59.641Z,102925.66
2023-01-29T03:36:32.977Z,102923.88
2023-01-29T03:39:00.464Z,102936.13
2023-01-29T03:41:33.289Z,102932.59
2023-01-29T03:44:10.174Z,102925.56
2023-01-29T03:46:46.610Z,102912.44
2023-01-29T03:49:21.870Z,102908.09
2023-01-29T03:51:56.463Z,102914.31
2023-01-29T03:54:29.076Z,102911.69
2023-01-29T03:57:00.775Z,102899.44
2023-01-29T03:59:39.183Z,102905.47
2023-01-29T04:02:24.514Z,102902.00
2023-01-29T04:04:53.862Z,102902.91
2023-01-29T04:07:21.987Z,102909.84
2023-01-29T04:09:54.434Z,102908.19
2023-01-29T04:12:25.560Z,102902.91
2023-01-29T04:14:54.530Z,102900.31
2023-01-29T04:17:27.688Z,102902.91
2023-01-29T04:20:04.580Z,102897.69
2023-01-29T04:22:35.572Z,102890.69
2023-01-29T04:25:05.537Z,102873.16
2023-01-29T04:27:43.379Z,102877.50
2023-01-29T04:30:22.889Z,102867.94
2023-01-29T04:33:02.977Z,102858.28
2023-01-29T04:35:32.620Z,102857.44
2023-01-29T04:38:11.476Z,102852.13
2023-01-29T04:40:49.625Z,102853.94
2023-01-29T04:43:24.334Z,102852.13
2023-01-29T04:46:06.056Z,102861.00
2023-01-29T04:48:44.520Z,102853.97
2023-01-29T04:51:17.924Z,102864.50
2023-01-29T04:53:50.275Z,102872.41
2023-01-29T04:56:23.952Z,102871.53
2023-01-29T04:58:55.722Z,102860.94
2023-01-29T05:01:27.398Z,102867.94
2023-01-29T05:03:56.620Z,102855.59
2023-01-29T05:06:24.724Z,102859.13
2023-01-29T05:08:52.400Z,102856.47
2023-01-29T05:11:20.380Z,102860.00
2023-01-29T05:13:48.784Z,102862.66
2023-01-29T05:16:19.247Z,102867.94
2023-01-29T05:18:46.995Z,102810.38
2023-01-29T05:21:15.171Z,102858.34
2023-01-29T05:23:41.853Z,102854.00
2023-01-29T05:26:08.603Z,102862.75
2023-01-29T05:28:35.284Z,102857.47
2023-01-29T05:31:02.165Z,102856.59
2023-01-29T05:33:31.030Z,102850.50
2023-01-29T05:35:59.819Z,102848.75
2023-01-29T05:38:28.252Z,102843.50
2023-01-29T05:40:54.894Z,102847.06
2023-01-29T05:43:23.601Z,102831.31
2023-01-29T05:45:54.641Z,102828.72
2023-01-29T05:48:21.617Z,102827.91
2023-01-29T05:50:48.672Z,102831.41
2023-01-29T05:53:15.763Z,102820.97
2023-01-29T05:55:46.032Z,102821.00
2023-01-29T05:58:13.140Z,102806.03
2023-01-29T06:00:40.228Z,102795.50
2023-01-29T06:03:07.159Z,102794.66
2023-01-29T06:05:33.944Z,102795.53
2023-01-29T06:08:00.736Z,102798.19
2023-01-29T06:10:27.892Z,102795.63
2023-01-29T06:12:55.952Z,102803.53
2023-01-29T06:15:22.641Z,102795.72
2023-01-29T06:17:49.391Z,102799.22
2023-01-29T06:20:16.744Z,102794.81
2023-01-29T06:22:43.637Z,102801.84
2023-01-29T06:25:10.416Z,102791.34
2023-01-29T06:27:37.174Z,102791.31
2023-01-29T06:30:06.663Z,102793.09
2023-01-29T06:32:34.567Z,102782.56
2023-01-29T06:35:01.407Z,102781.72
2023-01-29T06:37:28.080Z,102782.56
2023-01-29T06:39:54.756Z,102778.16
2023-01-29T06:42:21.475Z,102774.69
2023-01-29T06:44:48.139Z,102779.00
2023-01-29T06:47:16.374Z,102773.72
2023-01-29T06:49:43.127Z,102774.59
2023-01-29T06:52:09.862Z,102782.50
2023-01-29T06:54:36.554Z,102784.22
2023-01-29T06:57:03.373Z,102768.44
2023-01-29T06:59:30.111Z,102773.66
2023-01-29T07:01:56.891Z,102776.28
2023-01-29T07:04:25.260Z,102785.03
2023-01-29T07:06:51.959Z,102774.53
2023-01-29T07:09:18.832Z,102777.97
2023-01-29T07:11:45.449Z,102774.50
2023-01-29T07:14:12.118Z,102770.13
2023-01-29T07:16:39.103Z,102775.38
2023-01-29T07:19:05.862Z,102772.72
2023-01-29T07:21:33.921Z,102769.22
2023-01-29T07:24:00.720Z,102760.50
2023-01-29T07:26:27.503Z,102766.56
2023-01-29T07:28:54.357Z,102768.34
2023-01-29T07:31:21.328Z,102770.03
2023-01-29T07:33:48.251Z,102755.97
2023-01-29T07:36:15.396Z,102750.72
2023-01-29T07:38:43.515Z,102755.06
2023-01-29T07:41:11.672Z,102727.06
2023-01-29T07:43:38.541Z,102735.78
2023-01-29T07:46:05.686Z,102745.41
2023-01-29T07:48:32.401Z,102738.38
2023-01-29T07:50:59.243Z,102733.97
2023-01-29T07:53:26.901Z,102734.78
2023-01-29T07:55:55.247Z,102719.00
2023-01-29T07:58:22.130Z,102730.34
2023-01-29T08:00:49.031Z,102731.19
2023-01-29T08:03:18.532Z,102739.03
2023-01-29T08:11:29.173Z,102738.03
2023-01-29T08:13:56.219Z,102737.06
2023-01-29T08:16:23.220Z,102729.09
2023-01-29T08:18:50.091Z,102736.91
2023-01-29T08:21:16.861Z,102726.31
2023-01-29T08:23:43.707Z,102723.59
2023-01-29T08:26:10.558Z,102721.81
2023-01-29T08:28:38.748Z,102720.03
2023-01-29T08:31:12.925Z,102713.78
2023-01-29T08:33:40.140Z,102708.50
2023-01-29T08:36:08.291Z,102713.66
2023-01-29T08:38:35.556Z,102711.97
2023-01-29T08:41:02.428Z,102710.94
2023-01-29T08:43:29.422Z,102711.75
2023-01-29T08:45:57.998Z,102706.31
2023-01-29T08:48:24.793Z,102708.94
2023-01-29T08:50:51.648Z,102704.28
2023-01-29T08:53:18.785Z,102709.59
2023-01-29T08:55:46.417Z,102707.78
2023-01-29T08:58:13.174Z,102705.16
2023-01-29T09:00:39.947Z,102702.56
2023-01-29T09:03:08.284Z,102704.38
2023-01-29T09:05:35.575Z,102696.63
2023-01-29T09:08:02.398Z,102696.81
2023-01-29T09:10:29.185Z,102688.09
2023-01-29T09:12:56.165Z,102688.16
2023-01-29T09:15:23.562Z,102683.03
2023-01-29T09:17:50.381Z,102690.06
2023-01-29T09:20:19.229Z,102696.22
2023-01-29T09:22:46.551Z,102684.78
2023-01-29T09:25:13.613Z,102689.22
2023-01-29T09:27:40.502Z,102682.97
2023-01-29T09:30:08.232Z,102684.72
2023-01-29T09:32:52.693Z,102680.34
2023-01-29T09:35:23.848Z,102668.97
2023-01-29T09:37:50.963Z,102670.66
2023-01-29T09:40:24.624Z,102668.03
2023-01-29T09:42:57.470Z,102672.38
2023-01-29T09:45:27.275Z,102675.06
2023-01-29T09:47:59.086Z,102664.41
2023-01-29T09:50:32.854Z,102665.28
2023-01-29T09:53:05.084Z,102660.00
2023-01-29T09:55:37.159Z,102657.09
2023-01-29T09:58:11.960Z,102664.75
2023-01-29T10:00:44.673Z,102661.94
2023-01-29T10:03:29.882Z,102657.13
2023-01-29T10:06:15.138Z,102656.91
2023-01-29T10:09:06.269Z,102654.16
2023-01-29T10:11:41.932Z,102651.50
2023-01-29T10:14:13.237Z,102645.31
2023-01-29T10:16:54.820Z,102641.63
2023-01-29T10:19:35.691Z,102653.00
2023-01-29T10:22:29.524Z,102640.59
2023-01-29T10:25:00.627Z,102643.97
2023-01-29T10:27:32.449Z,102643.91
2023-01-29T10:30:02.302Z,102638.50
2023-01-29T10:32:30.999Z,102631.50
2023-01-29T10:35:02.565Z,102635.63
2023-01-29T10:37:39.509Z,102639.00
2023-01-29T10:40:20.089Z,102620.56
2023-01-29T10:42:52.961Z,102619.84
2023-01-29T10:45:29.244Z,102622.63
2023-01-29T10:48:22.267Z,102614.72
2023-01-29T10:50:55.073Z,102611.06
2023-01-29T10:53:33.570Z,102602.03
2023-01-29T10:56:22.424Z,102594.66
2023-01-29T10:58:52.252Z,102593.44
2023-01-29T11:01:19.118Z,102594.03
2023-01-29T11:03:45.973Z,102582.63
2023-01-29T11:06:19.609Z,102585.31
2023-01-29T11:08:54.051Z,102580.81
2023-01-29T11:11:24.694Z,102573.88
2023-01-29T11:13:56.775Z,102572.00
2023-01-29T11:16:23.724Z,102563.19
2023-01-29T11:18:53.954Z,102557.44
2023-01-29T11:21:20.986Z,102562.59
2023-01-29T11:23:49.236Z,102564.25
2023-01-29T11:26:19.397Z,102562.41
2023-01-29T11:28:47.729Z,102567.63
2023-01-29T11:31:26.174Z,102551.75
2023-01-29T11:34:01.384Z,102546.56
2023-01-29T11:36:32.751Z,102548.41
2023-01-29T11:39:22.838Z,102543.31
2023-01-29T11:41:53.091Z,102537.94
2023-01-29T11:44:22.476Z,102531.16
2023-01-29T11:46:50.295Z,102530.47
2023-01-29T11:49:31.428Z,102521.56
2023-01-29T11:52:01.131Z,102519.03
2023-01-29T11:54:31.497Z,102517.31
2023-01-29T11:56:58.792Z,102511.31
2023-01-29T11:59:35.542Z,102509.56
2023-01-29T12:02:13.298Z,102509.56
2023-01-29T12:04:40.375Z,102505.97
2023-01-29T12:07:13.103Z,102496.50
2023-01-29T12:09:41.312Z,102492.19
2023-01-29T12:12:18.150Z,102493.88
2023-01-29T12:14:45.028Z,102482.28
2023-01-29T12:17:17.179Z,102478.66
2023-01-29T12:19:48.875Z,102467.84
2023-01-29T12:22:21.160Z,102462.63
2023-01-29T12:24:57.409Z,102452.88
2023-01-29T12:27:31.420Z,102448.59
2023-01-29T12:30:04.626Z,102435.28
2023-01-29T12:32:40.034Z,102434.38
2023-01-29T12:35:14.972Z,102426.38
2023-01-29T12:37:57.032Z,102416.63
2023-01-29T12:40:29.822Z,102412.44
2023-01-29T12:43:01.883Z,102398.16
2023-01-29T12:45:30.760Z,102392.19
2023-01-29T12:48:09.756Z,102395.66
2023-01-29T12:50:37.828Z,102384.19
2023-01-29T12:53:12.480Z,102379.81
2023-01-29T12:56:01.305Z,102366.63
2023-01-29T13:01:21.396Z,102359.44
2023-01-29T13:09:50.200Z,102328.63
2023-01-29T13:12:22.990Z,102334.78
2023-01-29T13:14:54.167Z,102324.31
2023-01-29T13:17:28.798Z,102327.91
2023-01-29T13:20:00.286Z,102322.66
2023-01-29T13:22:29.734Z,102324.41
2023-01-29T13:27:43.779Z,102318.06
2023-01-29T13:30:23.827Z,102308.31
2023-01-29T13:32:53.950Z,102307.25
2023-01-29T13:35:23.653Z,102306.16
2023-01-29T13:37:53.576Z,102300.59
2023-01-29T13:40:24.689Z,102298.72
2023-01-29T13:42:59.928Z,102301.28
2023-01-29T13:45:35.758Z,102294.25
2023-01-29T13:48:11.793Z,102295.22
2023-01-29T13:50:43.051Z,102288.94
2023-01-29T13:53:22.501Z,102282.66
2023-01-29T13:55:51.265Z,102286.13
2023-01-29T13:58:56.836Z,102270.44
2023-01-29T14:02:01.932Z,102263.22
2023-01-29T14:04:29.896Z,102263.31
2023-01-29T14:06:58.077Z,102262.44
2023-01-29T14:10:05.073Z,102245.63
2023-01-29T14:12:41.571Z,102245.53
2023-01-29T14:15:36.306Z,102244.50
2023-01-29T14:18:18.139Z,102229.31
2023-01-29T14:21:04.406Z,102228.28
2023-01-29T14:23:52.396Z,102223.78
2023-01-29T14:26:27.952Z,102230.81
2023-01-29T14:29:03.196Z,102224.78
2023-01-29T14:31:37.393Z,102224.09
2023-01-29T14:34:07.744Z,102218.69
2023-01-29T14:36:44.830Z,102221.56
2023-01-29T14:39:28.163Z,102222.44
2023-01-29T14:41:56.009Z,102225.91
2023-01-29T14:44:51.304Z,102215.31
2023-01-29T14:47:27.670Z,102208.53
2023-01-29T14:49:59.691Z,102203.25
2023-01-29T14:52:34.219Z,102198.13
2023-01-29T14:55:07.864Z,102201.63
2023-01-29T14:57:37.134Z,102194.75
2023-01-29T15:00:06.998Z,102197.13
2023-01-29T15:05:58.294Z,102187.66
2023-01-29T15:08:29.829Z,102192.09
2023-01-29T15:10:59.415Z,102191.25
2023-01-29T15:13:32.825Z,102191.47
2023-01-29T15:16:06.137Z,102195.09
2023-01-29T15:18:38.358Z,102191.69
2023-01-29T15:21:11.593Z,102197.03
2023-01-29T15:23:38.923Z,102190.88
2023-01-29T15:26:08.306Z,102198.91
2023-01-29T15:28:35.979Z,102191.34
2023-01-29T15:31:04.753Z,102196.31
2023-01-29T15:33:33.556Z,102183.16
2023-01-29T15:38:53.818Z,102193.53
2023-01-29T15:41:21.232Z,102182.09
2023-01-29T15:43:49.027Z,102177.47
2023-01-29T15:46:23.601Z,102163.56
2023-01-29T15:48:54.206Z,102168.84
2023-01-29T15:51:27.613Z,102174.94
2023-01-29T15:54:00.623Z,102155.66
2023-01-29T15:56:35.199Z,102145.84
2023-01-29T15:59:09.412Z,102154.44
2023-01-29T16:01:36.792Z,102152.69
2023-01-29T16:04:04.628Z,102144.75
2023-01-29T16:06:38.855Z,102138.63
2023-01-29T16:09:07.271Z,102141.34
2023-01-29T16:11:35.007Z,102138.00
2023-01-29T16:14:03.494Z,102145.00
2023-01-29T16:16:30.482Z,102135.19
2023-01-29T16:19:00.836Z,102135.00
2023-01-29T16:21:31.989Z,102142.03
2023-01-29T16:24:02.877Z,102139.41
2023-01-29T16:26:33.094Z,102143.75
2023-01-29T16:29:05.191Z,102143.00
2023-01-29T16:31:32.811Z,102148.22
2023-01-29T16:34:06.118Z,102145.66
2023-01-29T16:36:33.516Z,102135.16
2023-01-29T16:39:06.627Z,102130.00
2023-01-29T16:41:36.228Z,102119.75
2023-01-29T16:44:04.596Z,102118.19
2023-01-29T16:46:36.315Z,102126.19
2023-01-29T16:49:20.052Z,102122.81
2023-01-29T16:51:46.836Z,102121.31
2023-01-29T16:54:15.400Z,102121.16
2023-01-29T16:56:44.909Z,102124.03
2023-01-29T16:59:18.653Z,102113.56
2023-01-29T17:01:45.449Z,102118.66
2023-01-29T17:04:15.841Z,102105.97
2023-01-29T17:06:46.114Z,102108.63
2023-01-29T17:09:22.189Z,102104.13
2023-01-29T17:11:55.332Z,102103.19
2023-01-29T17:14:24.528Z,102095.50
2023-01-29T17:16:54.283Z,102095.44
2023-01-29T17:19:24.699Z,102099.06
2023-01-29T17:21:51.669Z,102093.19
2023-01-29T17:24:21.083Z,102093.22
2023-01-29T17:26:48.272Z,102087.09
2023-01-29T17:29:19.080Z,102072.25
2023-01-29T17:31:46.524Z,102074.16
2023-01-29T17:34:15.055Z,102073.44
2023-01-29T17:36:43.521Z,102069.94
2023-01-29T17:39:17.219Z,102074.06
2023-01-29T17:41:47.509Z,102063.19
2023-01-29T17:44:14.832Z,102052.78
2023-01-29T17:46:41.959Z,102049.13
2023-01-29T17:49:19.103Z,102049.22
2023-01-29T17:51:46.239Z,102047.25
2023-01-29T17:54:13.063Z,102043.66
2023-01-29T17:56:41.121Z,102030.63
2023-01-29T17:59:13.858Z,102033.28
2023-01-29T18:01:40.677Z,102032.56
2023-01-29T18:04:07.603Z,102026.56
2023-01-29T18:06:34.815Z,102015.06
2023-01-29T18:09:01.885Z,102005.09
2023-01-29T18:11:28.731Z,101998.75
2023-01-29T18:13:55.697Z,101973.50
2023-01-29T18:16:24.741Z,101999.50
2023-01-29T18:18:52.462Z,101996.13
2023-01-29T18:21:19.511Z,101982.94
2023-01-29T18:23:46.253Z,101986.59
2023-01-29T18:26:15.358Z,101980.56
2023-01-29T18:28:42.299Z,101982.22
2023-01-29T18:31:11.497Z,101979.72
2023-01-29T18:33:41.522Z,101986.75
2023-01-29T18:36:08.982Z,101981.56
2023-01-29T18:38:35.825Z,101982.53
2023-01-29T18:41:03.978Z,101993.28
2023-01-29T18:43:30.847Z,101983.81
2023-01-29T18:45:58.456Z,101989.97
2023-01-29T18:48:25.720Z,101993.38
2023-01-29T18:50:53.948Z,101986.28
2023-01-29T18:53:20.841Z,101968.22
2023-01-29T18:55:54.984Z,101973.41
2023-01-29T18:58:26.349Z,101957.63
2023-01-29T19:01:00.198Z,101943.50
2023-01-29T19:03:26.983Z,101933.78
2023-01-29T19:05:59.989Z,101918.06
2023-01-29T19:08:26.706Z,101939.66
2023-01-29T19:10:53.358Z,101951.06
2023-01-29T19:13:20.022Z,101957.94
2023-01-29T19:15:46.733Z,101958.66
2023-01-29T19:18:14.690Z,101943.75
2023-01-29T19:20:41.685Z,101960.53
2023-01-29T19:23:09.674Z,101962.84
2023-01-29T19:25:37.748Z,101960.13
2023-01-29T19:28:05.073Z,101955.47
2023-01-29T19:30:32.262Z,101951.88
2023-01-29T19:32:59.381Z,101944.66
2023-01-29T19:35:26.146Z,101931.44
2023-01-29T19:37:53.118Z,101923.53
2023-01-29T19:40:21.484Z,101916.53
2023-01-29T19:42:48.941Z,101914.81
2023-01-29T19:45:16.086Z,101889.19
2023-01-29T19:47:43.327Z,101886.38
2023-01-29T19:50:11.644Z,101914.47
2023-01-29T19:52:50.760Z,101903.06
2023-01-29T19:55:20.616Z,101908.03
2023-01-29T19:57:51.713Z,101915.84
2023-01-29T20:00:19.430Z,101916.34
2023-01-29T20:02:46.171Z,101911.72
2023-01-29T20:05:13.747Z,101913.34
2023-01-29T20:07:40.553Z,101903.28
2023-01-29T20:10:08.658Z,101906.75
2023-01-29T20:12:35.485Z,101904.84
2023-01-29T20:15:04.251Z,101902.94
2023-01-29T20:17:30.903Z,101893.91
2023-01-29T20:19:57.607Z,101902.81
2023-01-29T20:22:26.447Z,101885.09
2023-01-29T20:24:54.219Z,101887.31
2023-01-29T20:27:20.931Z,101883.63
2023-01-29T20:29:47.643Z,101879.16
2023-01-29T20:32:15.754Z,101888.78
2023-01-29T20:34:42.494Z,101888.78
2023-01-29T20:37:09.196Z,101888.78
2023-01-29T20:39:35.844Z,101872.72
2023-01-29T20:42:02.576Z,101870.72
2023-01-29T20:44:29.290Z,101875.13
2023-01-29T20:46:56.302Z,101877.63
2023-01-29T20:49:24.488Z,101882.84
2023-01-29T20:51:51.280Z,101885.13
2023-01-29T20:54:18.246Z,101873.72
2023-01-29T20:56:45.812Z,101884.41
2023-01-29T20:59:13.882Z,101861.41
2023-01-29T21:01:41.507Z,101877.28
2023-01-29T21:04:08.270Z,101879.97
2023-01-29T21:06:36.432Z,101872.53
2023-01-29T21:09:03.540Z,101857.34
2023-01-29T21:11:30.375Z,101836.06
2023-01-29T21:13:57.141Z,101808.47
2023-01-29T21:16:24.422Z,101807.63
2023-01-29T21:18:51.108Z,101801.41
2023-01-29T21:21:17.882Z,101793.56
2023-01-29T21:23:45.843Z,101779.59
2023-01-29T21:26:12.590Z,101770.97
2023-01-29T21:28:39.395Z,101770.47
2023-01-29T21:31:07.862Z,101760.03
2023-01-29T21:33:34.747Z,101756.78
2023-01-29T21:36:02.087Z,101742.63
2023-01-29T21:38:28.813Z,101745.41
2023-01-29T21:41:00.791Z,101748.09
2023-01-29T21:43:27.867Z,101735.06
2023-01-29T21:45:55.937Z,101749.34
2023-01-29T21:48:23.118Z,101743.84
2023-01-29T21:50:50.104Z,101729.78
2023-01-29T21:53:16.930Z,101752.66
2023-01-29T21:55:43.772Z,101749.09
2023-01-29T21:58:14.297Z,101757.94
2023-01-29T22:00:41.266Z,101730.56
2023-01-29T22:03:08.163Z,101737.47
2023-01-29T22:05:34.907Z,101745.06
2023-01-29T22:08:01.803Z,101740.47
2023-01-29T22:10:28.816Z,101729.03
2023-01-29T22:12:55.739Z,101694.06
2023-01-29T22:15:24.209Z,101707.88
2023-01-29T22:17:51.196Z,101693.72
2023-01-29T22:20:18.636Z,101676.13
2023-01-29T22:22:45.608Z,101673.47
2023-01-29T22:25:12.440Z,101663.81
2023-01-29T22:27:39.169Z,101683.88
2023-01-29T22:30:07.378Z,101685.66
2023-01-29T22:32:35.463Z,101708.50
2023-01-29T22:35:02.165Z,101723.59
2023-01-29T22:37:28.857Z,101733.06
2023-01-29T22:39:55.598Z,101730.22
2023-01-29T22:42:22.327Z,101717.06
2023-01-29T22:44:49.067Z,101714.41
2023-01-29T22:47:15.919Z,101705.38
2023-01-29T22:49:44.202Z,101713.31
2023-01-29T22:52:10.938Z,101700.94
2023-01-29T22:54:39.194Z,101710.53
2023-01-29T22:57:06.827Z,101711.25
2023-01-29T22:59:33.674Z,101696.25
2023-01-29T23:02:00.549Z,101685.66
2023-01-29T23:04:27.510Z,101671.63
2023-01-29T23:06:55.728Z,101671.63
2023-01-29T23:09:22.644Z,101680.00
2023-01-29T23:11:49.353Z,101660.91
2023-01-29T23:14:16.183Z,101659.19
2023-01-29T23:16:43.134Z,101664.72
2023-01-29T23:19:10.789Z,101671.84
2023-01-29T23:21:38.001Z,101672.22
2023-01-29T23:24:07.115Z,101670.56
2023-01-29T23:26:34.175Z,101666.19
2023-01-29T23:29:00.912Z,101656.09
2023-01-29T23:31:27.712Z,101652.91
2023-01-29T23:33:54.867Z,101657.19
2023-01-29T23:36:21.803Z,101660.38
2023-01-29T23:38:48.464Z,101663.81
2023-01-29T23:41:16.628Z,101656.09
2023-01-29T23:43:43.353Z,101645.97
2023-01-29T23:46:10.080Z,101650.09
2023-01-29T23:48:36.679Z,101634.34
2023-01-29T23:51:03.775Z,101643.25
2023-01-29T23:53:30.511Z,101620.38
2023-01-29T23:55:58.451Z,101626.50
2023-01-29T23:58:28.137Z,101611.38
